Time;durP1;ratioP1;P1;durP2;ratioP2;P2;SDS_P1;SDS_P2;PMS_P1;PMS_P2;Temp;Humidity;BMP_temperature;BMP_pressure;BME280_temperature;BME280_humidity;BME280_pressure;Samples;Min_cycle;Max_cycle;Signal;HPM_P1;HPM_P2
2022/04/12 00:06:48;;;;;;;4.07;2.22;;;6.50;99.90;;;;;;4858007;29;20048;-84
2022/04/12 00:09:48;;;;;;;;;;;;;;;;;;;;;
2022/04/12 00:15:55;;;;;;;;;;;;;;;;;;;;;
2022/04/12 00:19:17;;;;;;;;;;;;;;;;;;;;;
2022/04/12 00:25:56;;;;;;;;;;;6.50;99.90;;;;;;4851212;29;20549;-86
2022/04/12 00:38:45;;;;;;;3.13;1.92;;;6.40;99.90;;;;;;4840649;29;20513;-84
2022/04/12 00:49:26;;;;;;;;;;;;;;;;;;;;;
2022/04/12 00:52:57;;;;;;;2.47;1.60;;;6.40;99.90;;;;;;4800414;29;20047;-83
2022/04/12 01:02:39;;;;;;;;;;;;;;;;;;;;;
2022/04/12 01:12:38;;;;;;;2.60;1.70;;;6.50;99.90;;;;;;4733008;30;20771;-83
2022/04/12 01:15:47;;;;;;;3.28;2.05;;;6.50;99.90;;;;;;4740081;30;20039;-83
2022/04/12 01:53:44;;;;;;;5.55;2.83;;;6.10;99.90;;;;;;4892230;29;20031;-82
2022/04/12 01:56:31;;;;;;;3.17;2.33;;;6.10;99.90;;;;;;4905887;29;20036;-84
2022/04/12 01:59:15;;;;;;;6.00;3.92;;;6.10;99.90;;;;;;4925777;28;20370;-84
2022/04/12 02:05:15;;;;;;;8.90;3.08;;;6.20;99.90;;;;;;4958805;28;20182;-84
2022/04/12 02:08:33;;;;;;;4.47;2.35;;;6.30;99.90;;;;;;4900178;29;20096;-84
2022/04/12 02:22:12;;;;;;;;;;;;;;;;;;;;;
2022/04/12 02:25:32;;;;;;;5.10;1.95;;;6.40;99.90;;;;;;4813777;29;20049;-83
2022/04/12 02:41:54;;;;;;;5.50;2.05;;;6.30;99.90;;;;;;4798820;29;20030;-84
2022/04/12 02:51:31;;;;;;;3.47;2.03;;;6.20;99.90;;;;;;4906172;29;20047;-84
2022/04/12 03:11:41;;;;;;;;;;;;;;;;;;;;;
2022/04/12 03:21:16;;;;;;;3.70;1.92;;;5.90;99.90;;;;;;4898609;29;20035;-83
2022/04/12 03:24:00;;;;;;;3.17;1.95;;;5.90;99.90;;;;;;4904133;29;20198;-83
2022/04/12 03:27:00;;;;;;;;;;;;;;;;;;;;;
2022/04/12 03:30:23;;;;;;;;;;;;;;;;;;;;;
2022/04/12 03:37:24;;;;;;;2.95;1.85;;;5.90;99.90;;;;;;4885009;29;20587;-83
2022/04/12 03:50:11;;;;;;;6.38;2.10;;;5.80;99.90;;;;;;4912249;29;20051;-83
2022/04/12 03:53:41;;;;;;;;;;;;;;;;;;;;;
2022/04/12 04:06:46;;;;;;;5.03;2.00;;;5.80;99.90;;;;;;4841587;29;20062;-83
2022/04/12 04:09:21;;;;;;;2.70;1.88;;;5.70;99.90;;;;;;4819332;29;20054;-82
2022/04/12 04:12:42;;;;;;;2.38;1.85;;;5.70;99.90;;;;;;4887344;29;20640;-82
2022/04/12 04:15:12;;;;;;;4.07;2.03;;;5.70;99.90;;;;;;5002704;28;20034;-83
2022/04/12 04:20:39;;;;;;;3.87;2.03;;;5.60;99.90;;;;;;4987802;28;20036;-83
2022/04/12 04:23:26;;;;;;;2.60;1.90;;;5.60;99.90;;;;;;4981661;28;20085;-82
2022/04/12 04:25:51;;;;;;;4.38;2.10;;;5.60;99.90;;;;;;4998592;28;20019;-86
2022/04/12 04:28:29;;;;;;;6.40;2.28;;;5.60;99.90;;;;;;5003001;28;20048;-83
2022/04/12 04:31:00;;;;;;;3.85;1.90;;;5.60;99.90;;;;;;4991309;28;20495;-84
2022/04/12 04:33:26;;;;;;;1.93;1.77;;;5.70;99.90;;;;;;4996136;28;20052;-83
2022/04/12 04:36:01;;;;;;;3.35;1.90;;;5.60;99.90;;;;;;4995663;28;20028;-84
2022/04/12 04:38:30;;;;;;;5.70;2.10;;;5.70;99.90;;;;;;5007734;28;20213;-84
2022/04/12 04:40:58;;;;;;;5.05;2.25;;;5.70;99.90;;;;;;5007560;28;20022;-84
2022/04/12 04:43:27;;;;;;;4.60;2.33;;;5.70;99.90;;;;;;5005802;28;20030;-88
2022/04/12 04:46:00;;;;;;;2.22;1.80;;;5.70;99.90;;;;;;5006308;28;20081;-87
2022/04/12 04:49:03;;;;;;;3.65;2.13;;;5.80;99.90;;;;;;5003871;28;20033;-87
2022/04/12 04:51:42;;;;;;;2.88;1.85;;;5.80;99.90;;;;;;5003231;28;20031;-83
2022/04/12 04:54:15;;;;;;;3.25;1.90;;;6.00;99.90;;;;;;5001738;28;20388;-85
2022/04/12 04:56:41;;;;;;;3.10;2.28;;;6.10;99.90;;;;;;5000255;28;20552;-86
2022/04/12 04:59:19;;;;;;;3.60;2.10;;;6.20;99.90;;;;;;4996405;28;20177;-85
2022/04/12 05:01:45;;;;;;;5.40;2.20;;;6.30;99.90;;;;;;4999670;28;20026;-84
2022/04/12 05:04:11;;;;;;;2.85;2.10;;;6.50;99.90;;;;;;4977633;28;20037;-88
2022/04/12 05:06:43;;;;;;;8.80;2.20;;;6.50;99.90;;;;;;4979715;28;20038;-86
2022/04/12 05:09:12;;;;;;;3.08;1.70;;;6.70;99.90;;;;;;4988883;28;20465;-85
2022/04/12 05:11:38;;;;;;;6.68;1.90;;;6.80;99.90;;;;;;5003666;28;20125;-86
2022/04/12 05:14:27;;;;;;;10.00;2.20;;;6.80;99.90;;;;;;4990405;28;20108;-85
2022/04/12 05:16:59;;;;;;;8.20;2.50;;;6.90;99.90;;;;;;5005680;28;20030;-86
2022/04/12 05:19:27;;;;;;;4.33;2.00;;;6.90;99.90;;;;;;4998770;28;20061;-84
2022/04/12 05:22:09;;;;;;;6.25;2.13;;;7.00;99.90;;;;;;5003465;28;20280;-84
2022/04/12 05:25:05;;;;;;;5.47;2.45;;;7.00;99.90;;;;;;5008299;28;20072;-84
2022/04/12 05:27:37;;;;;;;4.43;2.07;;;7.10;99.90;;;;;;4998013;28;20565;-84
2022/04/12 05:30:07;;;;;;;5.80;2.15;;;7.20;99.90;;;;;;5010974;28;20034;-85
2022/04/12 05:32:33;;;;;;;3.00;1.73;;;7.30;99.90;;;;;;5006482;28;20108;-85
2022/04/12 05:35:00;;;;;;;4.75;2.13;;;7.40;99.90;;;;;;4997012;28;20475;-87
2022/04/12 05:37:28;;;;;;;3.95;2.08;;;7.50;99.90;;;;;;4987582;28;20117;-89
2022/04/12 05:40:01;;;;;;;3.83;2.17;;;7.60;99.90;;;;;;4985746;28;20030;-86
2022/04/12 05:42:27;;;;;;;2.78;1.88;;;7.70;99.90;;;;;;5000027;28;20412;-86
2022/04/12 05:44:53;;;;;;;5.93;2.60;;;7.70;99.90;;;;;;4982551;28;20421;-89
2022/04/12 05:47:29;;;;;;;4.65;2.05;;;7.80;99.90;;;;;;4997064;28;20080;-88
2022/04/12 05:49:54;;;;;;;3.60;2.17;;;7.90;99.90;;;;;;4962711;28;20025;-88
2022/04/12 05:52:21;;;;;;;5.50;2.65;;;7.90;99.90;;;;;;5005708;28;20068;-88
2022/04/12 05:54:50;;;;;;;6.43;2.10;;;8.00;99.90;;;;;;4980830;28;20034;-87
2022/04/12 05:57:16;;;;;;;4.25;1.88;;;8.10;99.90;;;;;;4987954;28;20492;-86
2022/04/12 05:59:41;;;;;;;6.10;2.00;;;8.30;99.90;;;;;;4996855;28;20158;-88
2022/04/12 06:02:07;;;;;;;4.05;1.90;;;8.40;99.90;;;;;;4997190;28;20027;-88
2022/04/12 06:04:33;;;;;;;7.38;2.22;;;8.50;99.90;;;;;;4995753;28;20168;-85
2022/04/12 06:07:16;;;;;;;6.40;2.60;;;8.70;99.90;;;;;;5003715;28;20046;-82
2022/04/12 06:09:47;;;;;;;8.95;3.03;;;8.80;99.90;;;;;;5010017;28;20064;-84
2022/04/12 06:12:13;;;;;;;11.77;4.63;;;8.90;99.90;;;;;;4981821;28;20065;-86
2022/04/12 06:14:39;;;;;;;7.63;4.68;;;9.10;99.90;;;;;;4990512;28;20031;-88
2022/04/12 06:17:13;;;;;;;19.80;6.88;;;9.10;99.90;;;;;;5002242;28;20041;-86
2022/04/12 06:20:00;;;;;;;27.08;8.93;;;9.20;99.90;;;;;;4997430;28;20030;-88
2022/04/12 06:22:26;;;;;;;18.60;8.82;;;9.40;99.90;;;;;;4994071;28;20025;-89
2022/04/12 06:24:51;;;;;;;23.10;9.95;;;9.50;99.90;;;;;;4989699;28;20583;-89
2022/04/12 06:27:17;;;;;;;19.40;9.70;;;9.70;99.90;;;;;;5009148;28;20552;-87
2022/04/12 06:29:49;;;;;;;18.80;8.80;;;9.80;99.90;;;;;;4996612;28;20446;-88
2022/04/12 06:32:15;;;;;;;12.98;7.32;;;9.90;99.90;;;;;;4989016;28;20023;-89
2022/04/12 06:34:50;;;;;;;17.60;6.35;;;10.00;99.90;;;;;;4989226;28;20520;-88
2022/04/12 06:37:19;;;;;;;11.38;5.60;;;10.10;99.90;;;;;;4997958;28;20114;-88
2022/04/12 06:39:45;;;;;;;14.57;4.80;;;10.20;99.90;;;;;;4989366;28;20043;-90
2022/04/12 06:42:11;;;;;;;7.38;3.95;;;10.30;99.90;;;;;;4996451;28;20102;-89
2022/04/12 06:44:41;;;;;;;8.20;3.67;;;10.40;99.90;;;;;;4995801;28;20027;-87
2022/04/12 06:47:08;;;;;;;10.10;3.53;;;10.60;99.90;;;;;;5000656;28;20034;-88
2022/04/12 06:49:34;;;;;;;7.18;3.60;;;10.70;99.90;;;;;;4983768;28;20505;-89
2022/04/12 06:51:59;;;;;;;6.43;3.28;;;10.80;99.90;;;;;;4987778;28;20015;-88
2022/04/12 06:54:27;;;;;;;10.35;3.63;;;11.00;99.90;;;;;;4970717;28;20030;-89
2022/04/12 06:56:52;;;;;;;5.35;2.72;;;11.10;99.90;;;;;;4999347;28;20032;-89
2022/04/12 06:59:18;;;;;;;9.73;4.00;;;11.30;99.90;;;;;;4997468;28;20098;-89
2022/04/12 07:01:53;;;;;;;5.57;2.83;;;11.40;99.90;;;;;;4990383;28;20030;-87
2022/04/12 07:04:19;;;;;;;8.95;3.72;;;11.50;99.90;;;;;;4985257;28;20023;-88
2022/04/12 07:06:45;;;;;;;5.45;2.53;;;11.70;99.90;;;;;;5001142;28;20038;-89
2022/04/12 07:09:23;;;;;;;5.20;2.92;;;11.80;99.90;;;;;;4972954;28;20046;-88
2022/04/12 07:11:51;;;;;;;5.22;2.45;;;11.90;99.90;;;;;;4995203;28;20081;-89
2022/04/12 07:14:18;;;;;;;7.03;2.30;;;12.00;99.90;;;;;;4983621;28;20501;-88
2022/04/12 07:16:46;;;;;;;7.70;3.00;;;12.10;99.90;;;;;;4997523;28;20038;-83
2022/04/12 07:19:15;;;;;;;4.82;2.63;;;12.20;99.90;;;;;;4982971;28;20109;-81
2022/04/12 07:21:44;;;;;;;4.82;2.42;;;12.30;99.90;;;;;;4988536;28;20089;-81
2022/04/12 07:24:10;;;;;;;9.98;2.92;;;12.40;99.90;;;;;;4983548;28;20022;-81
2022/04/12 07:27:04;;;;;;;6.47;2.80;;;12.60;99.90;;;;;;4989690;28;20130;-81
2022/04/12 07:29:30;;;;;;;6.32;2.00;;;12.70;99.90;;;;;;4984481;28;20397;-82
2022/04/12 07:31:57;;;;;;;5.93;2.28;;;12.90;99.90;;;;;;5000235;28;20032;-81
2022/04/12 07:34:23;;;;;;;5.93;1.70;;;12.90;99.90;;;;;;4995581;28;20017;-81
2022/04/12 07:36:53;;;;;;;7.63;1.88;;;13.00;99.90;;;;;;4986574;28;20057;-82
2022/04/12 07:39:23;;;;;;;3.90;1.20;;;13.10;99.90;;;;;;4979652;28;20022;-81
2022/04/12 07:41:50;;;;;;;2.47;1.23;;;13.30;99.90;;;;;;4997480;28;20025;-81
2022/04/12 07:44:17;;;;;;;3.70;0.90;;;13.40;99.90;;;;;;4991540;28;20030;-81
2022/04/12 07:46:47;;;;;;;6.15;1.30;;;13.50;99.90;;;;;;4999231;28;20510;-81
2022/04/12 07:49:22;;;;;;;6.15;1.08;;;13.70;99.90;;;;;;4994719;28;20042;-82
2022/04/12 07:51:48;;;;;;;4.68;1.63;;;13.70;99.90;;;;;;5005887;28;20030;-83
2022/04/12 07:54:13;;;;;;;3.85;1.00;;;13.80;99.90;;;;;;4983034;28;20125;-81
2022/04/12 07:56:39;;;;;;;3.58;1.23;;;13.90;99.90;;;;;;5001730;28;20057;-81
2022/04/12 07:59:10;;;;;;;2.33;1.40;;;14.10;99.90;;;;;;4987998;28;20052;-80
2022/04/12 08:01:36;;;;;;;5.45;1.60;;;14.30;99.90;;;;;;4995666;28;20054;-83
2022/04/12 08:04:02;;;;;;;11.40;2.13;;;14.30;99.90;;;;;;4981273;28;20490;-83
2022/04/12 08:06:28;;;;;;;13.30;2.40;;;14.20;99.90;;;;;;4989935;28;20057;-83
2022/04/12 08:08:54;;;;;;;8.93;1.83;;;14.20;99.90;;;;;;4983203;28;20041;-81
2022/04/12 08:11:20;;;;;;;7.47;1.90;;;14.00;99.90;;;;;;4993678;28;20026;-83
2022/04/12 08:13:46;;;;;;;7.60;1.95;;;13.90;99.90;;;;;;4994841;28;20528;-85
2022/04/12 08:16:15;;;;;;;6.55;1.63;;;13.80;99.90;;;;;;5000766;28;20029;-90
2022/04/12 08:18:43;;;;;;;4.47;1.45;;;13.80;99.90;;;;;;4990821;28;20454;-90
2022/04/12 08:21:09;;;;;;;3.78;1.83;;;13.80;99.90;;;;;;5002923;28;20477;-88
2022/04/12 08:23:35;;;;;;;6.13;1.35;;;13.90;99.90;;;;;;4992951;28;20027;-89
2022/04/12 08:26:01;;;;;;;9.10;1.55;;;14.00;99.90;;;;;;4994271;28;20019;-89
2022/04/12 08:28:30;;;;;;;5.97;1.60;;;14.00;99.90;;;;;;4998973;28;20026;-90
2022/04/12 08:31:01;;;;;;;4.20;1.60;;;14.00;99.90;;;;;;4995513;28;20095;-88
2022/04/12 08:33:27;;;;;;;3.78;1.23;;;14.20;99.90;;;;;;4976723;28;20033;-86
2022/04/12 08:35:53;;;;;;;5.68;1.63;;;14.20;99.90;;;;;;4994041;28;20033;-84
2022/04/12 08:38:19;;;;;;;6.18;1.60;;;14.10;99.90;;;;;;4988002;28;20130;-89
2022/04/12 08:40:45;;;;;;;4.05;1.40;;;14.00;99.90;;;;;;4994700;28;20033;-88
2022/04/12 08:43:16;;;;;;;4.03;1.35;;;14.10;99.90;;;;;;4986002;28;20537;-88
2022/04/12 08:45:45;;;;;;;5.22;1.80;;;14.20;99.90;;;;;;4989168;28;20030;-88
2022/04/12 08:48:12;;;;;;;4.93;1.33;;;14.20;99.90;;;;;;4978523;28;20057;-88
2022/04/12 08:50:39;;;;;;;6.40;1.65;;;14.30;99.90;;;;;;4990524;28;20371;-83
2022/04/12 08:53:09;;;;;;;5.10;1.48;;;14.40;99.90;;;;;;4988264;28;20486;-85
2022/04/12 08:55:36;;;;;;;4.35;1.65;;;14.50;99.90;;;;;;4988375;28;20022;-91
2022/04/12 08:58:16;;;;;;;3.53;1.48;;;14.50;99.90;;;;;;4982392;28;20074;-85
2022/04/12 09:00:45;;;;;;;4.10;1.42;;;14.50;99.90;;;;;;4987228;28;20018;-91
2022/04/12 09:03:15;;;;;;;2.75;1.58;;;14.30;99.90;;;;;;4994279;28;20022;-92
2022/04/12 09:05:44;;;;;;;9.00;2.08;;;14.20;99.90;;;;;;4974595;28;20038;-86
2022/04/12 09:08:51;;;;;;;3.67;1.42;;;14.30;99.90;;;;;;4999699;28;20034;-87
2022/04/12 09:11:17;;;;;;;2.88;1.23;;;14.60;99.90;;;;;;4900361;29;20024;-90
2022/04/12 09:14:03;;;;;;;4.60;1.40;;;14.50;99.90;;;;;;4925900;29;20148;-91
2022/04/12 09:16:52;;;;;;;5.38;1.50;;;14.40;99.90;;;;;;4969554;28;20030;-90
2022/04/12 09:19:44;;;;;;;9.20;1.48;;;14.40;99.90;;;;;;4987407;28;20573;-90
2022/04/12 09:22:16;;;;;;;4.15;1.50;;;14.40;99.90;;;;;;5004410;28;20114;-90
